Date,TemperatureHighF,TemperatureAvgF,TemperatureLowF,DewpointHighF,DewpointAvgF,DewpointLowF,HumidityHigh,HumidityAvg,HumidityLow,PressureMaxIn,PressureMinIn,WindSpeedMaxMPH,WindSpeedAvgMPH,GustSpeedMaxMPH,PrecipitationSumIn
2013-1-1,64,52,44,45,38,34,80,62,38,30.28,30.18,9,2,14,0.00
2013-1-2,72,54,44,49,38,32,82,58,24,30.23,30.12,7,1,16,0.00
2013-1-3,70,52,43,47,41,32,89,67,33,30.26,30.15,8,1,12,0.00
2013-1-4,63,52,43,53,44,38,90,76,41,30.28,30.21,18,3,23,0.00
2013-1-5,59,51,48,50,47,44,94,86,72,30.30,30.14,23,5,34,0.11
2013-1-6,58,50,45,49,46,42,98,87,69,30.23,30.06,13,2,18,0.28
2013-1-7,62,51,45,50,46,41,94,83,58,30.29,30.18,10,2,13,0.00
2013-1-8,67,54,47,51,47,44,92,77,52,30.23,30.13,12,4,16,0.00
2013-1-9,57,50,46,51,47,40,94,87,76,30.15,30.07,10,1,16,0.05
2013-1-10,56,48,42,44,40,37,91,74,57,30.24,30.13,8,3,17,0.09
2013-1-11,58,50,45,44,40,36,85,70,53,30.30,30.17,8,2,18,0.02
2013-1-12,59,48,39,41,36,31,88,67,40,30.28,30.18,5,1,9,0.00
2013-1-13,58,46,36,38,29,22,76,55,33,30.29,30.19,10,2,10,0.00
2013-1-14,59,46,37,30,23,17,68,43,23,30.43,30.24,9,2,13,0.00
2013-1-15,61,47,38,41,31,21,82,56,28,30.49,30.42,8,1,10,0.00
2013-1-16,66,50,40,43,36,31,84,62,34,30.44,30.24,11,1,13,0.00
2013-1-17,74,55,44,51,40,34,77,60,28,30.24,30.14,4,0,6,0.00
2013-1-18,80,59,46,42,36,29,78,47,18,30.21,30.14,5,1,10,0.00
2013-1-19,76,58,48,42,32,23,63,40,19,30.22,30.15,3,0,7,0.00
2013-1-20,74,58,47,41,34,24,68,43,18,30.20,30.11,4,0,6,0.00
2013-1-21,83,62,47,48,32,21,70,36,12,30.17,30.05,5,1,10,0.00
2013-1-22,75,59,51,47,36,22,57,43,28,30.11,30.03,5,1,9,0.00
2013-1-23,60,56,51,50,42,30,88,63,37,30.11,29.99,18,3,27,0.04
2013-1-24,57,54,51,55,52,48,96,92,84,30.21,30.06,5,0,7,0.12
2013-1-25,73,59,53,60,54,52,97,86,59,30.21,30.07,9,2,13,0.01
2013-1-26,60,54,50,52,48,43,96,83,63,30.15,30.05,7,2,13,0.00
2013-1-27,60,52,48,45,43,41,81,72,55,30.22,30.14,9,3,15,0.00
2013-1-28,61,52,48,47,45,41,86,75,56,30.33,30.21,10,3,16,0.00
2013-1-29,60,52,46,48,46,42,92,80,63,30.39,30.30,8,2,14,0.00
2013-1-30,66,54,46,50,46,42,92,76,55,30.39,30.29,9,1,12,0.00
2013-1-31,70,54,44,51,45,40,94,74,37,30.31,30.19,7,1,10,0.00
2013-2-1,66,50,46,49,46,40,96,84,51,30.27,30.17,16,2,23,0.00
2013-2-2,57,51,48,50,48,47,95,90,79,30.32,30.25,7,1,14,0.00
2013-2-3,63,53,47,49,47,44,95,82,56,30.29,30.19,10,1,12,0.00
2013-2-4,61,51,43,50,46,42,95,85,67,30.21,30.10,8,2,14,0.01
2013-2-5,59,52,49,49,47,44,91,82,63,30.19,30.11,8,2,10,0.00
2013-2-6,63,52,43,49,45,41,95,80,55,30.23,30.18,6,1,14,0.00
2013-2-7,63,50,44,50,44,41,94,79,55,30.23,30.07,8,1,11,0.12
2013-2-8,59,48,43,46,43,41,95,83,58,30.07,29.99,7,1,12,0.22
2013-2-9,63,51,41,47,43,37,94,76,52,30.15,30.04,6,0,9,0.00
2013-2-10,62,51,42,47,41,34,89,71,51,30.15,30.07,5,1,7,0.00
2013-2-11,68,52,42,47,42,32,95,71,29,30.29,30.11,6,1,12,0.00
2013-2-12,60,50,43,49,43,36,94,77,63,30.39,30.29,6,1,7,0.00
2013-2-13,62,51,43,50,46,42,96,85,64,30.37,30.27,10,2,16,0.00
2013-2-14,68,55,43,51,46,42,96,74,41,30.27,30.17,11,2,15,0.01
2013-2-15,86,64,51,51,41,32,73,46,17,30.25,30.19,8,1,13,0.00
2013-2-16,74,60,50,51,42,34,93,56,26,30.22,30.10,5,1,8,0.00
2013-2-17,61,53,48,49,47,45,93,80,60,30.12,30.03,5,1,10,0.00
2013-2-18,54,50,48,47,44,40,91,79,62,30.11,30.04,7,1,9,0.00
2013-2-19,51,47,43,45,42,37,93,83,67,30.04,29.83,13,3,24,0.23
2013-2-20,59,50,41,46,42,35,86,76,61,30.13,29.88,9,3,15,0.00
2013-2-21,61,52,45,46,43,41,90,73,53,30.23,30.11,8,2,15,0.00
2013-2-22,63,51,43,49,45,40,95,79,53,30.32,30.22,9,1,14,0.00
2013-2-23,60,52,46,47,45,42,93,78,55,30.30,30.18,9,2,22,0.01
2013-2-24,67,52,42,45,39,27,91,67,25,30.30,30.19,9,2,16,0.00
2013-2-25,63,51,42,49,45,41,95,81,57,30.31,30.22,6,1,12,0.00
2013-2-26,66,52,42,47,42,32,93,72,30,30.25,30.16,14,2,16,0.00
2013-2-27,63,52,44,50,45,39,94,78,53,30.41,30.23,11,2,18,0.00
2013-2-28,63,53,48,53,49,46,96,86,68,30.48,30.41,9,2,16,0.00
2013-3-1,68,55,46,55,50,46,97,83,55,30.46,30.25,13,6,17,0.01
2013-3-2,63,54,50,52,48,39,96,83,49,30.25,30.15,6,1,11,0.00
2013-3-3,62,53,49,52,49,46,96,88,69,30.18,30.13,5,1,8,0.00
2013-3-4,58,51,46,48,46,42,91,83,64,30.20,30.12,4,1,9,0.00
2013-3-5,54,50,47,46,44,41,91,79,70,30.14,29.96,27,9,38,0.00
2013-3-6,58,52,46,51,47,42,95,85,71,30.14,29.96,34,5,44,0.06
2013-3-7,56,49,45,48,44,40,94,83,64,30.05,29.89,23,6,28,0.06
2013-3-8,58,50,45,49,45,43,95,84,68,30.17,29.86,6,1,17,0.01
2013-3-9,64,54,47,50,46,42,91,75,57,30.36,30.17,8,2,12,0.00
2013-3-10,61,52,47,50,48,45,96,86,68,30.38,30.30,8,1,12,0.00
2013-3-11,63,52,43,52,47,42,97,85,66,30.30,30.16,15,4,19,0.01
2013-3-12,59,52,47,51,48,46,96,89,74,30.18,30.13,16,3,21,0.00
2013-3-13,68,53,47,57,49,46,97,87,65,30.18,30.11,9,2,13,0.00
2013-3-14,63,52,46,52,49,46,97,87,64,30.21,30.11,8,2,16,0.01
2013-3-15,65,55,48,53,50,47,96,84,66,30.17,30.11,10,3,20,0.00
2013-3-16,64,54,49,54,49,47,96,83,63,30.17,30.07,8,2,17,0.00
2013-3-17,63,54,46,51,47,45,95,81,62,30.18,30.12,7,2,14,0.00
2013-3-18,61,52,46,50,47,44,94,84,65,30.18,30.09,8,2,13,0.00
2013-3-19,67,56,49,52,47,31,92,72,41,30.22,30.07,9,2,14,0.03
2013-3-20,63,56,51,54,49,41,93,80,52,30.18,30.11,8,1,11,0.01
2013-3-21,62,54,48,51,46,43,94,76,56,30.18,30.07,12,3,16,0.00
2013-3-22,65,54,44,47,44,39,96,74,40,30.13,30.05,10,2,23,0.00
2013-3-23,67,53,42,49,44,33,93,73,31,30.15,30.08,10,2,13,0.00
2013-3-24,63,53,45,50,47,43,96,82,61,30.14,30.05,7,1,14,0.00
2013-3-25,61,52,47,49,46,44,93,82,61,30.07,30.03,9,2,13,0.00
2013-3-26,65,54,45,50,47,43,94,79,58,30.06,30.02,6,1,11,0.00
2013-3-27,68,55,47,53,50,45,95,84,58,30.08,30.00,12,2,14,0.00
2013-3-28,62,56,51,55,53,50,96,90,76,30.14,30.06,6,1,11,0.00
2013-3-29,54,51,47,52,50,46,97,94,85,30.15,30.09,16,3,20,0.01
2013-3-30,64,54,50,55,51,50,98,91,69,30.14,30.03,21,6,30,0.10
2013-3-31,61,55,50,55,52,49,97,91,74,30.13,30.05,24,7,31,0.01
2013-4-1,65,56,52,57,53,50,97,90,73,30.21,30.10,12,3,15,0.04
2013-4-2,63,54,49,55,51,48,97,88,72,30.22,30.16,8,2,13,0.01
2013-4-3,64,52,48,54,50,47,98,92,70,30.17,30.08,10,4,17,0.01
2013-4-4,59,54,50,54,52,49,97,94,85,30.18,30.08,17,3,20,0.08
2013-4-5,70,60,54,57,54,52,95,82,61,30.25,30.18,5,1,10,0.00
2013-4-6,69,59,52,56,53,50,94,82,61,30.26,30.20,5,1,8,0.00
2013-4-7,66,58,51,55,52,49,94,81,63,30.23,29.98,7,1,9,0.01
2013-4-8,53,51,50,52,46,42,94,82,74,29.99,29.94,10,5,21,0.02
2013-10-5,93,77,63,34,29,24,32,18,9,30.15,30.12,5,1,8,0.00
2013-10-6,77,67,58,45,35,25,45,32,20,30.12,30.03,3,0,9,0.00
2013-10-7,68,59,53,56,48,36,92,69,35,30.04,29.96,7,1,8,0.00
2013-10-8,60,55,50,53,51,48,93,85,76,29.98,29.82,8,2,10,0.00
2013-10-9,67,57,51,53,50,47,88,79,59,29.84,29.71,4,1,10,0.00
2013-10-10,60,54,50,53,50,47,91,86,79,30.07,29.84,22,6,27,0.00
2013-10-11,64,56,51,52,50,48,90,81,62,30.13,30.05,8,1,13,0.00
2013-10-12,66,55,50,53,50,48,93,84,61,30.06,30.01,9,1,15,0.00
2013-10-13,68,58,52,54,52,47,93,81,61,30.09,30.00,8,1,13,0.00
2013-10-14,73,61,52,53,48,42,80,63,41,30.12,30.03,8,1,14,0.00
2013-10-15,80,65,57,49,43,37,66,46,25,30.05,29.96,13,2,15,0.00
2013-10-16,75,64,57,56,45,36,64,50,38,30.10,30.01,6,1,8,0.00
2013-10-17,79,63,53,55,45,35,87,53,27,30.09,30.01,5,1,8,0.00
2013-10-18,70,58,51,55,52,48,97,82,52,30.08,30.02,12,3,17,0.00
2013-10-19,66,54,48,54,50,47,97,87,64,30.10,30.06,8,2,11,0.01
2013-10-20,64,54,47,53,50,46,97,88,68,30.09,29.99,10,2,15,0.00
2013-10-21,63,54,50,52,50,49,96,88,68,30.05,29.99,6,1,12,0.00
2013-10-22,61,53,50,52,50,48,94,88,70,30.06,30.00,7,1,10,0.00
2013-10-23,56,53,51,52,51,50,95,92,84,30.04,29.98,4,1,8,0.00
2013-10-24,58,54,52,52,51,49,94,88,78,30.16,30.02,4,0,9,0.00
2013-10-25,67,56,49,55,51,48,96,84,63,30.19,30.14,8,1,16,0.00
2013-10-26,66,55,50,55,52,49,97,88,67,30.18,30.09,13,2,17,0.00
2013-10-27,58,54,51,53,51,50,96,90,80,30.10,29.86,7,1,20,0.02
2013-10-28,60,56,54,56,52,50,94,88,79,29.93,29.79,7,3,15,0.06
2013-10-29,67,56,50,55,52,48,95,87,64,30.10,29.94,10,2,17,0.02
2013-10-30,66,55,46,55,50,45,96,83,65,30.18,30.10,9,1,13,0.01
2013-10-31,74,57,48,54,49,46,94,77,41,30.19,30.10,12,2,18,0.00
2013-11-1,76,59,50,56,48,43,91,70,33,30.14,30.06,5,1,9,0.00
2013-11-2,64,55,47,54,50,44,91,83,69,30.06,29.99,9,2,16,0.00
2013-11-3,65,55,49,54,49,46,96,81,57,30.08,29.94,9,2,15,0.00
2013-11-4,67,55,46,51,47,44,95,78,49,30.10,29.95,10,1,14,0.00
2013-11-5,72,57,47,53,46,38,95,70,30,30.25,30.09,9,2,12,0.01
2013-11-6,79,61,50,51,41,35,76,50,24,30.25,30.19,3,1,5,0.00
2013-11-7,70,57,50,54,46,36,94,68,34,30.19,30.11,8,1,17,0.00
2013-11-8,71,57,49,55,50,45,97,81,40,30.12,29.99,10,3,15,0.00
2013-11-9,60,55,48,55,52,44,96,89,67,30.10,30.00,18,4,26,0.01
2013-11-10,63,56,52,55,52,49,93,87,74,30.17,30.08,9,2,14,0.00
2013-11-11,65,56,48,55,50,46,95,82,59,30.20,30.10,5,1,8,0.00
2013-11-12,72,60,55,54,52,44,93,74,49,30.29,30.19,11,2,16,0.00
2013-11-13,70,58,52,56,53,49,95,83,57,30.29,30.16,12,3,15,0.00
2013-11-14,61,54,51,54,52,50,97,91,76,30.17,29.97,10,2,12,0.00
2013-11-15,66,56,50,52,50,47,93,81,60,29.97,29.81,6,2,11,0.00
2013-11-16,66,56,50,53,50,47,93,81,61,30.00,29.85,5,1,8,0.00
2013-11-17,66,56,50,52,49,46,93,80,57,30.16,29.99,6,1,10,0.00
2013-11-18,62,54,48,52,48,46,93,82,66,30.20,30.14,3,0,7,0.00
2013-11-19,61,55,51,55,51,47,100,87,73,30.16,30.02,6,1,13,0.12
2013-11-20,60,56,52,59,55,52,98,96,91,30.02,29.90,14,3,20,0.29
2013-11-21,66,55,49,54,49,36,98,82,59,29.98,29.93,6,1,11,0.01
2013-11-22,70,56,46,42,34,20,76,48,16,30.05,29.96,7,2,11,0.00
2013-11-23,65,56,50,54,44,35,81,64,44,30.14,29.99,14,2,17,0.00
2013-11-24,71,58,50,50,43,40,81,61,36,30.28,30.14,7,1,10,0.00
2013-11-25,77,57,47,52,46,41,88,67,34,30.33,30.26,8,1,12,0.00
2013-11-26,72,58,48,48,44,41,78,63,36,30.26,30.05,8,1,14,0.00
2013-11-27,63,56,51,55,48,40,87,74,56,30.04,29.86,17,2,22,0.00
2013-11-28,73,59,52,52,49,45,88,72,41,30.11,29.88,4,1,7,0.00
2013-11-29,78,59,50,54,48,42,95,69,29,30.26,30.10,11,2,15,0.00
2013-11-30,66,54,46,53,49,45,97,86,62,30.29,30.22,11,2,13,0.00
2013-12-1,74,57,46,54,49,42,96,76,33,30.33,30.23,11,3,16,0.00
2013-12-2,67,56,49,55,52,46,95,86,65,30.25,30.04,15,4,17,0.00
2013-12-3,61,53,45,52,45,36,96,76,49,30.03,29.90,7,2,13,0.03
2013-12-4,61,49,40,37,32,22,76,55,22,30.11,29.98,5,1,11,0.00
2013-12-5,59,46,36,34,29,20,77,55,26,30.22,30.10,9,1,11,0.00
2013-12-6,57,49,39,49,38,32,92,69,51,30.24,30.05,25,4,32,0.01
2013-12-7,55,49,44,50,38,31,93,69,48,30.29,29.99,22,3,26,0.16
2013-12-8,54,43,37,35,30,23,78,62,42,30.32,30.21,10,2,13,0.00
2013-12-9,58,44,36,34,28,22,75,54,33,30.39,30.30,13,2,15,0.00
2013-12-10,67,49,37,43,31,22,77,53,20,30.39,30.19,11,2,14,0.00
2013-12-11,67,53,43,49,35,19,82,53,30,30.22,30.16,9,1,14,0.00
2013-12-12,61,51,43,50,42,29,93,72,38,30.28,30.21,5,1,8,0.00
2013-12-13,62,51,43,50,44,39,95,79,53,30.35,30.25,9,2,14,0.01
2013-12-14,73,56,46,47,38,28,76,53,28,30.36,30.29,11,2,17,0.00
2013-12-15,73,58,47,45,35,28,68,45,23,30.33,30.19,10,2,15,0.00
2013-12-16,84,60,51,48,33,23,66,39,11,30.18,30.09,4,1,12,0.00
2013-12-17,75,59,52,53,42,27,92,57,26,30.14,30.04,4,0,6,0.00
2013-12-18,56,53,51,53,50,48,94,89,83,30.06,29.89,5,1,11,0.00
2013-12-19,63,54,46,48,45,41,86,74,49,29.95,29.78,9,2,13,0.01
2013-12-20,65,52,43,46,36,16,91,61,16,30.04,29.94,5,1,11,0.00
2013-12-21,62,53,46,53,48,43,94,85,66,30.11,30.01,9,1,13,0.00
2013-12-22,62,52,46,53,49,44,95,87,55,30.33,30.11,12,2,16,0.01
2013-12-23,59,50,45,52,47,42,95,87,59,30.41,30.32,10,1,11,0.01
2013-12-24,77,59,49,49,42,36,82,56,23,30.32,30.19,12,2,17,0.00
2013-12-25,78,60,50,48,39,35,69,47,26,30.26,30.20,3,0,7,0.00
2013-12-26,80,61,50,50,36,28,62,41,17,30.22,30.15,3,0,6,0.00
2013-12-27,72,59,51,47,34,22,72,42,21,30.21,30.11,8,1,12,0.00
2013-12-28,69,56,47,51,45,28,92,69,33,30.13,30.03,12,3,14,0.00
2013-12-29,70,59,50,41,34,27,65,41,24,30.19,30.08,8,1,13,0.00
2013-12-30,64,55,48,55,42,27,94,65,37,30.28,30.18,7,1,8,0.00
2013-12-31,63,52,43,51,47,37,96,84,44,30.29,30.18,11,2,17,0.00
2014-1-1,68,55,45,51,43,32,95,67,40,30.21,30.13,11,2,13,0.01
2014-1-2,75,58,49,49,39,30,82,51,21,30.15,30.05,13,3,14,0.00